Time;durP1;ratioP1;P1;durP2;ratioP2;P2;SDS_P1;SDS_P2;PMS_P1;PMS_P2;Temp;Humidity;BMP_temperature;BMP_pressure;BME280_temperature;BME280_humidity;BME280_pressure;Samples;Min_cycle;Max_cycle;Signal;HPM_P1;HPM_P2
2021/08/22 00:00:12;;;;;;;3.26;2.27;;;;;;;;;;345350;155;857372;-60
2021/08/22 00:01:13;;;;;;;3.15;2.10;;;;;;;;;;346151;152;857339;-61
2021/08/22 00:02:15;;;;;;;3.06;2.25;;;;;;;;;;345557;151;859100;-60
2021/08/22 00:03:17;;;;;;;3.81;2.35;;;;;;;;;;345035;155;857326;-61
2021/08/22 00:04:18;;;;;;;6.95;2.40;;;;;;;;;;345805;153;857395;-61
2021/08/22 00:05:20;;;;;;;4.91;2.45;;;;;;;;;;345296;152;864700;-61
2021/08/22 00:06:22;;;;;;;3.36;2.36;;;;;;;;;;345751;151;857110;-61
2021/08/22 00:07:24;;;;;;;6.21;2.42;;;;;;;;;;347354;154;857674;-61
2021/08/22 00:08:25;;;;;;;4.31;2.46;;;;;;;;;;346354;151;858911;-61
2021/08/22 00:09:27;;;;;;;2.64;2.36;;;;;;;;;;345791;151;866450;-61
2021/08/22 00:10:29;;;;;;;3.58;2.47;;;;;;;;;;349537;153;859653;-62
2021/08/22 00:11:31;;;;;;;3.55;2.49;;;;;;;;;;350877;153;860134;-61
2021/08/22 00:12:33;;;;;;;2.96;2.31;;;;;;;;;;345565;153;858700;-61
2021/08/22 00:13:34;;;;;;;3.26;2.16;;;;;;;;;;346965;152;866563;-61
2021/08/22 00:14:36;;;;;;;4.79;2.20;;;;;;;;;;347203;155;857267;-61
2021/08/22 00:15:37;;;;;;;5.33;2.93;;;;;;;;;;345373;155;864978;-62
2021/08/22 00:16:40;;;;;;;3.49;2.16;;;;;;;;;;346180;153;857199;-61
2021/08/22 00:17:41;;;;;;;6.10;2.56;;;;;;;;;;345463;155;857185;-61
2021/08/22 00:18:43;;;;;;;3.84;2.12;;;;;;;;;;345419;155;858278;-61
2021/08/22 00:19:45;;;;;;;3.85;2.41;;;;;;;;;;344997;153;858954;-61
2021/08/22 00:20:49;;;;;;;3.98;2.42;;;;;;;;;;346102;154;857304;-62
2021/08/22 00:21:50;;;;;;;2.54;2.34;;;;;;;;;;346980;153;857817;-61
2021/08/22 00:22:52;;;;;;;2.84;2.20;;;;;;;;;;346050;152;864954;-61
2021/08/22 00:23:54;;;;;;;2.57;2.28;;;;;;;;;;348480;152;857286;-62
2021/08/22 00:24:55;;;;;;;4.89;2.39;;;;;;;;;;347635;153;864597;-61
2021/08/22 00:25:57;;;;;;;2.60;2.01;;;;;;;;;;346188;153;857302;-61
2021/08/22 00:26:59;;;;;;;3.22;2.45;;;;;;;;;;346302;152;857169;-61
2021/08/22 00:28:00;;;;;;;2.88;2.39;;;;;;;;;;346934;154;857352;-61
2021/08/22 00:29:02;;;;;;;3.96;2.49;;;;;;;;;;345164;156;857640;-61
2021/08/22 00:30:05;;;;;;;3.25;2.13;;;;;;;;;;345377;152;858924;-60
2021/08/22 00:31:06;;;;;;;3.10;2.35;;;;;;;;;;346338;152;858908;-60
2021/08/22 00:32:08;;;;;;;2.66;1.94;;;;;;;;;;348201;153;858424;-61
2021/08/22 00:33:10;;;;;;;4.99;2.23;;;;;;;;;;344995;155;864611;-61
2021/08/22 00:34:11;;;;;;;2.69;2.21;;;;;;;;;;345277;152;857719;-61
2021/08/22 00:35:13;;;;;;;3.64;2.18;;;;;;;;;;346583;154;857312;-61
2021/08/22 00:36:15;;;;;;;6.86;2.64;;;;;;;;;;347098;154;858442;-61
2021/08/22 00:37:17;;;;;;;2.80;2.21;;;;;;;;;;345525;152;857822;-61
2021/08/22 00:38:18;;;;;;;3.46;2.39;;;;;;;;;;345971;152;857954;-60
2021/08/22 00:39:20;;;;;;;4.54;2.31;;;;;;;;;;346832;153;858146;-61
2021/08/22 00:40:23;;;;;;;4.16;2.32;;;;;;;;;;345182;153;857290;-61
2021/08/22 00:41:25;;;;;;;3.45;2.22;;;;;;;;;;349047;150;859251;-60
2021/08/22 00:42:32;;;;;;;3.01;2.31;;;;;;;;;;361398;146;857153;-60
2021/08/22 00:43:34;;;;;;;3.55;2.24;;;;;;;;;;360398;146;857877;-61
2021/08/22 00:44:36;;;;;;;3.05;1.94;;;;;;;;;;361316;146;857451;-61
2021/08/22 00:45:38;;;;;;;5.27;2.52;;;;;;;;;;360543;146;857276;-61
2021/08/22 00:46:40;;;;;;;4.07;2.42;;;;;;;;;;360621;149;857112;-60
2021/08/22 00:47:45;;;;;;;3.38;2.54;;;;;;;;;;360561;146;857267;-61
2021/08/22 00:48:46;;;;;;;4.84;2.19;;;;;;;;;;364037;145;864982;-61
2021/08/22 00:49:48;;;;;;;4.20;2.58;;;;;;;;;;361723;146;857157;-61
2021/08/22 00:50:52;;;;;;;2.57;2.25;;;;;;;;;;361725;145;859540;-61
2021/08/22 00:51:54;;;;;;;4.17;2.31;;;;;;;;;;360428;146;857915;-61
2021/08/22 00:52:55;;;;;;;3.95;2.34;;;;;;;;;;364832;146;859308;-61
2021/08/22 00:53:57;;;;;;;2.64;2.12;;;;;;;;;;366303;146;857343;-61
2021/08/22 00:54:59;;;;;;;5.41;2.42;;;;;;;;;;361835;146;857253;-61
2021/08/22 00:56:03;;;;;;;2.92;2.54;;;;;;;;;;360503;149;857354;-61
2021/08/22 00:57:04;;;;;;;4.22;2.30;;;;;;;;;;360257;149;857339;-60
2021/08/22 00:58:05;;;;;;;4.29;2.33;;;;;;;;;;361130;145;857948;-61
2021/08/22 00:59:07;;;;;;;2.80;2.51;;;;;;;;;;360368;145;858711;-61
2021/08/22 01:00:11;;;;;;;3.11;2.39;;;;;;;;;;360569;146;860767;-61
2021/08/22 01:01:17;;;;;;;4.82;2.44;;;;;;;;;;361077;146;859023;-61
2021/08/22 01:02:20;;;;;;;4.07;2.62;;;;;;;;;;360764;145;858392;-61
2021/08/22 01:03:41;;;;;;;3.75;2.72;;;;;;;;;;363901;146;857181;-61
2021/08/22 01:04:42;;;;;;;;;;;;;;;;;;364510;146;856630;-62
2021/08/22 01:05:48;;;;;;;3.70;2.46;;;;;;;;;;360685;146;857270;-61
2021/08/22 01:07:11;;;;;;;4.81;2.53;;;;;;;;;;360418;145;857278;-61
2021/08/22 01:08:14;;;;;;;3.47;2.30;;;;;;;;;;360421;146;859015;-60
2021/08/22 01:09:17;;;;;;;4.19;2.72;;;;;;;;;;360776;145;857393;-61
2021/08/22 01:10:21;;;;;;;2.76;2.14;;;;;;;;;;361362;146;857367;-62
2021/08/22 01:11:23;;;;;;;3.61;2.72;;;;;;;;;;360618;149;857990;-62
2021/08/22 01:12:27;;;;;;;4.37;2.24;;;;;;;;;;361531;145;857188;-62
2021/08/22 01:13:29;;;;;;;3.13;2.69;;;;;;;;;;361644;145;857243;-61
2021/08/22 01:14:31;;;;;;;3.30;2.07;;;;;;;;;;360646;149;858937;-61
2021/08/22 01:15:38;;;;;;;4.43;2.45;;;;;;;;;;361310;146;857200;-61
2021/08/22 01:16:42;;;;;;;3.49;2.38;;;;;;;;;;360935;145;866563;-61
2021/08/22 01:17:46;;;;;;;5.57;2.30;;;;;;;;;;354250;149;859059;-61
2021/08/22 01:18:48;;;;;;;4.04;2.54;;;;;;;;;;354378;149;859310;-60
2021/08/22 01:20:09;;;;;;;4.83;2.36;;;;;;;;;;361949;145;858887;-61
2021/08/22 01:21:12;;;;;;;3.31;2.13;;;;;;;;;;359190;148;865378;-61
2021/08/22 01:22:14;;;;;;;5.04;1.97;;;;;;;;;;360471;147;857845;-61
2021/08/22 01:23:15;;;;;;;9.13;2.39;;;;;;;;;;362371;146;859820;-60
2021/08/22 01:24:18;;;;;;;2.84;2.19;;;;;;;;;;360459;145;865118;-60
2021/08/22 01:25:19;;;;;;;3.67;2.38;;;;;;;;;;360847;146;857854;-60
2021/08/22 01:26:26;;;;;;;3.84;2.54;;;;;;;;;;361118;146;858035;-61
2021/08/22 01:27:27;;;;;;;5.26;2.84;;;;;;;;;;363180;145;857323;-60
2021/08/22 01:28:29;;;;;;;4.18;2.51;;;;;;;;;;362773;146;856978;-61
2021/08/22 01:29:31;;;;;;;3.43;2.37;;;;;;;;;;361026;146;857179;-60
2021/08/22 01:30:36;;;;;;;3.76;2.46;;;;;;;;;;361271;145;857063;-60
2021/08/22 01:31:43;;;;;;;3.49;2.52;;;;;;;;;;360428;146;866294;-61
2021/08/22 01:32:45;;;;;;;8.67;3.04;;;;;;;;;;360252;149;857095;-61
2021/08/22 01:33:47;;;;;;;4.13;2.80;;;;;;;;;;360417;145;857291;-61
2021/08/22 01:34:49;;;;;;;2.53;2.05;;;;;;;;;;360304;146;859293;-60
2021/08/22 01:35:51;;;;;;;2.91;2.24;;;;;;;;;;360498;146;857207;-59
2021/08/22 01:36:53;;;;;;;4.06;2.47;;;;;;;;;;362387;146;858573;-60
2021/08/22 01:37:54;;;;;;;3.97;2.48;;;;;;;;;;362466;145;858869;-60
2021/08/22 01:38:56;;;;;;;3.21;2.55;;;;;;;;;;360520;149;857297;-61
2021/08/22 01:39:57;;;;;;;7.14;2.46;;;;;;;;;;360438;146;857692;-61
2021/08/22 01:40:59;;;;;;;4.49;2.30;;;;;;;;;;361312;145;857164;-61
2021/08/22 01:42:01;;;;;;;5.06;2.63;;;;;;;;;;361781;146;857184;-60
2021/08/22 01:43:03;;;;;;;4.66;2.49;;;;;;;;;;360541;149;866481;-62
2021/08/22 01:44:05;;;;;;;4.83;2.51;;;;;;;;;;354552;149;858990;-62
2021/08/22 01:45:07;;;;;;;3.21;2.47;;;;;;;;;;346315;151;864790;-61
2021/08/22 01:46:09;;;;;;;4.92;2.40;;;;;;;;;;361791;146;857319;-62
2021/08/22 01:47:11;;;;;;;5.11;2.71;;;;;;;;;;360538;146;865475;-61
2021/08/22 01:48:13;;;;;;;3.07;2.19;;;;;;;;;;361481;146;857400;-61
2021/08/22 01:49:14;;;;;;;3.53;2.69;;;;;;;;;;360614;145;857276;-61
2021/08/22 01:50:16;;;;;;;3.81;2.54;;;;;;;;;;364337;146;857276;-61
2021/08/22 01:51:18;;;;;;;2.81;2.34;;;;;;;;;;361329;146;864943;-61
2021/08/22 01:52:19;;;;;;;6.14;1.94;;;;;;;;;;360509;146;864801;-61
2021/08/22 01:53:21;;;;;;;4.56;2.43;;;;;;;;;;366503;146;857262;-61
2021/08/22 01:54:23;;;;;;;10.90;2.91;;;;;;;;;;365293;146;857243;-61
2021/08/22 01:55:24;;;;;;;2.36;2.14;;;;;;;;;;360562;145;857247;-61
2021/08/22 01:56:27;;;;;;;3.84;2.64;;;;;;;;;;360473;149;858977;-62
2021/08/22 01:57:29;;;;;;;3.39;2.38;;;;;;;;;;360491;147;859069;-62
2021/08/22 01:58:30;;;;;;;4.13;2.31;;;;;;;;;;361078;145;864765;-61
2021/08/22 01:59:36;;;;;;;3.37;2.56;;;;;;;;;;360509;145;857619;-61
2021/08/22 02:00:38;;;;;;;3.37;2.15;;;;;;;;;;360749;146;858989;-61
2021/08/22 02:01:40;;;;;;;3.69;2.56;;;;;;;;;;362817;146;857760;-61
2021/08/22 02:02:45;;;;;;;4.44;2.72;;;;;;;;;;362320;146;859495;-61
2021/08/22 02:03:50;;;;;;;5.18;2.23;;;;;;;;;;360253;146;857279;-61
2021/08/22 02:04:55;;;;;;;4.89;2.63;;;;;;;;;;361133;145;857115;-61
2021/08/22 02:05:58;;;;;;;5.26;2.61;;;;;;;;;;360289;145;859222;-61
2021/08/22 02:07:02;;;;;;;3.34;2.28;;;;;;;;;;360464;149;857165;-61
2021/08/22 02:08:06;;;;;;;4.23;2.42;;;;;;;;;;359459;149;858818;-61
2021/08/22 02:09:08;;;;;;;6.59;2.96;;;;;;;;;;360388;146;857222;-61
2021/08/22 02:10:13;;;;;;;3.40;2.52;;;;;;;;;;360373;146;857273;-61
2021/08/22 02:11:16;;;;;;;2.81;2.07;;;;;;;;;;360415;146;857341;-61
2021/08/22 02:12:19;;;;;;;6.93;2.25;;;;;;;;;;364643;146;857379;-62
2021/08/22 02:13:21;;;;;;;8.19;2.37;;;;;;;;;;361152;145;857240;-61
2021/08/22 02:14:22;;;;;;;3.23;2.21;;;;;;;;;;362852;146;857173;-61
2021/08/22 02:15:25;;;;;;;4.20;2.29;;;;;;;;;;352440;152;857318;-62
2021/08/22 02:16:29;;;;;;;4.14;2.26;;;;;;;;;;361408;145;858870;-61
2021/08/22 02:17:32;;;;;;;5.08;2.38;;;;;;;;;;360612;145;857281;-61
2021/08/22 02:18:34;;;;;;;8.02;2.42;;;;;;;;;;362955;146;859422;-61
2021/08/22 02:19:36;;;;;;;5.51;2.20;;;;;;;;;;354573;148;858429;-60
2021/08/22 02:20:39;;;;;;;7.10;2.69;;;;;;;;;;353637;148;866443;-61
2021/08/22 02:21:41;;;;;;;6.21;2.53;;;;;;;;;;361603;146;857156;-61
2021/08/22 02:22:45;;;;;;;4.71;2.61;;;;;;;;;;360606;146;858921;-61
2021/08/22 02:23:47;;;;;;;4.33;2.58;;;;;;;;;;360307;146;859722;-61
2021/08/22 02:24:49;;;;;;;8.15;2.93;;;;;;;;;;360488;149;857124;-61
2021/08/22 02:25:50;;;;;;;5.52;2.65;;;;;;;;;;360623;147;865600;-61
2021/08/22 02:26:53;;;;;;;3.24;2.31;;;;;;;;;;360578;146;859063;-61
2021/08/22 02:27:55;;;;;;;6.91;2.63;;;;;;;;;;360649;145;857425;-60
2021/08/22 02:28:57;;;;;;;4.21;2.61;;;;;;;;;;363173;146;859672;-61
2021/08/22 02:29:59;;;;;;;6.23;2.55;;;;;;;;;;363770;146;858999;-60
2021/08/22 02:31:00;;;;;;;3.40;2.35;;;;;;;;;;360568;145;857216;-60
2021/08/22 02:32:02;;;;;;;7.44;2.41;;;;;;;;;;363287;146;857147;-60
2021/08/22 02:33:04;;;;;;;3.09;2.39;;;;;;;;;;360723;146;857127;-60
2021/08/22 02:34:06;;;;;;;5.04;2.42;;;;;;;;;;360544;148;865486;-61
2021/08/22 02:35:08;;;;;;;5.50;2.45;;;;;;;;;;360522;145;859487;-61
2021/08/22 02:36:10;;;;;;;5.53;2.22;;;;;;;;;;363194;146;857435;-61
2021/08/22 02:37:12;;;;;;;4.24;2.54;;;;;;;;;;361663;146;861092;-60
2021/08/22 02:38:13;;;;;;;4.86;1.99;;;;;;;;;;362061;145;858609;-60
2021/08/22 02:39:15;;;;;;;4.87;2.27;;;;;;;;;;360982;146;857847;-60
2021/08/22 02:40:18;;;;;;;5.66;2.75;;;;;;;;;;364402;146;857284;-60
2021/08/22 02:41:20;;;;;;;4.76;2.36;;;;;;;;;;360607;145;857678;-60
2021/08/22 02:42:21;;;;;;;3.14;2.31;;;;;;;;;;361073;145;857162;-60
2021/08/22 02:43:23;;;;;;;4.72;2.34;;;;;;;;;;360594;149;857157;-60
2021/08/22 02:44:24;;;;;;;4.08;2.50;;;;;;;;;;360530;146;857831;-60
2021/08/22 02:45:26;;;;;;;7.04;2.86;;;;;;;;;;360511;145;858196;-60
2021/08/22 02:46:29;;;;;;;4.43;2.44;;;;;;;;;;362743;146;857390;-61
2021/08/22 02:47:31;;;;;;;3.44;2.36;;;;;;;;;;363142;146;857130;-60
2021/08/22 02:48:33;;;;;;;4.16;2.51;;;;;;;;;;361272;146;857990;-60
2021/08/22 02:49:34;;;;;;;6.48;2.49;;;;;;;;;;362603;146;857456;-61
2021/08/22 02:50:37;;;;;;;3.56;2.61;;;;;;;;;;366737;146;857251;-60
2021/08/22 02:51:39;;;;;;;5.20;2.61;;;;;;;;;;361352;146;859012;-60
2021/08/22 02:52:41;;;;;;;4.57;2.69;;;;;;;;;;363620;145;864635;-60
2021/08/22 02:53:42;;;;;;;7.05;2.61;;;;;;;;;;360960;146;857419;-60
2021/08/22 02:54:44;;;;;;;4.17;2.48;;;;;;;;;;360653;146;860086;-60
2021/08/22 02:55:46;;;;;;;5.87;2.79;;;;;;;;;;360276;146;865229;-61
2021/08/22 02:56:48;;;;;;;4.82;2.27;;;;;;;;;;360920;146;857277;-61
2021/08/22 02:57:49;;;;;;;4.79;2.66;;;;;;;;;;360634;147;857387;-61
2021/08/22 02:58:51;;;;;;;8.85;3.31;;;;;;;;;;361847;145;857172;-61
2021/08/22 02:59:52;;;;;;;4.11;2.61;;;;;;;;;;360625;145;857188;-60
2021/08/22 03:00:55;;;;;;;6.43;2.67;;;;;;;;;;364101;146;857171;-60
2021/08/22 03:01:56;;;;;;;9.00;2.77;;;;;;;;;;361709;145;857175;-61
2021/08/22 03:02:58;;;;;;;4.93;2.48;;;;;;;;;;360896;145;866328;-60
2021/08/22 03:03:59;;;;;;;3.96;2.74;;;;;;;;;;360606;146;857780;-60
2021/08/22 03:05:01;;;;;;;4.05;2.72;;;;;;;;;;361069;146;860447;-60
2021/08/22 03:06:03;;;;;;;2.90;2.40;;;;;;;;;;360538;146;859121;-61
2021/08/22 03:07:04;;;;;;;5.34;2.82;;;;;;;;;;362571;146;864648;-60
2021/08/22 03:08:06;;;;;;;6.02;2.98;;;;;;;;;;365200;146;857229;-60
2021/08/22 03:09:07;;;;;;;6.81;2.64;;;;;;;;;;362220;145;857722;-61
2021/08/22 03:10:11;;;;;;;3.58;2.42;;;;;;;;;;361535;145;864893;-60
2021/08/22 03:11:14;;;;;;;3.63;2.66;;;;;;;;;;360946;146;857553;-60
2021/08/22 03:12:16;;;;;;;4.94;2.51;;;;;;;;;;360437;146;864834;-60
2021/08/22 03:13:17;;;;;;;6.10;2.71;;;;;;;;;;360463;145;857325;-60
2021/08/22 03:14:19;;;;;;;9.12;2.64;;;;;;;;;;360638;146;859349;-60
2021/08/22 03:15:21;;;;;;;8.08;2.31;;;;;;;;;;360472;146;858831;-60
2021/08/22 03:16:23;;;;;;;4.18;2.83;;;;;;;;;;360715;146;858650;-60
2021/08/22 03:17:24;;;;;;;3.78;2.62;;;;;;;;;;360588;145;859267;-60
2021/08/22 03:18:26;;;;;;;6.83;2.74;;;;;;;;;;360870;146;864716;-60
2021/08/22 03:19:28;;;;;;;4.64;2.59;;;;;;;;;;361455;146;864656;-60
2021/08/22 03:20:31;;;;;;;6.96;2.42;;;;;;;;;;360249;146;857231;-59
2021/08/22 03:21:33;;;;;;;5.79;2.61;;;;;;;;;;360364;146;857399;-60
2021/08/22 03:22:34;;;;;;;4.43;2.47;;;;;;;;;;353513;149;857553;-60
2021/08/22 03:23:36;;;;;;;5.99;2.77;;;;;;;;;;353574;148;857199;-60
2021/08/22 03:24:38;;;;;;;5.25;2.68;;;;;;;;;;362077;145;857859;-60
2021/08/22 03:25:39;;;;;;;3.07;2.46;;;;;;;;;;360500;149;857217;-60
2021/08/22 03:26:41;;;;;;;3.83;2.84;;;;;;;;;;360447;146;859172;-59
2021/08/22 03:27:43;;;;;;;4.74;2.56;;;;;;;;;;361296;145;859080;-60
2021/08/22 03:28:44;;;;;;;3.90;2.46;;;;;;;;;;360419;147;864988;-60
2021/08/22 03:29:46;;;;;;;6.26;3.05;;;;;;;;;;360650;146;858219;-58
2021/08/22 03:30:51;;;;;;;3.29;2.27;;;;;;;;;;361346;145;857807;-59
2021/08/22 03:31:52;;;;;;;8.23;2.61;;;;;;;;;;361517;146;858843;-60
2021/08/22 03:32:53;;;;;;;4.55;2.64;;;;;;;;;;361132;146;857370;-61
2021/08/22 03:33:55;;;;;;;4.29;2.57;;;;;;;;;;360813;146;859186;-61
2021/08/22 03:34:57;;;;;;;3.76;2.75;;;;;;;;;;361348;145;859267;-59
2021/08/22 03:35:58;;;;;;;4.41;2.41;;;;;;;;;;360805;146;858739;-60
2021/08/22 03:37:00;;;;;;;2.84;2.47;;;;;;;;;;361833;146;857909;-60
2021/08/22 03:38:02;;;;;;;4.71;2.46;;;;;;;;;;361345;145;866024;-60
2021/08/22 03:39:04;;;;;;;4.38;2.39;;;;;;;;;;361140;145;858249;-60
2021/08/22 03:40:07;;;;;;;5.08;2.51;;;;;;;;;;360350;146;857276;-60
2021/08/22 03:41:08;;;;;;;5.86;2.52;;;;;;;;;;360311;146;858458;-60
2021/08/22 03:42:10;;;;;;;3.55;2.56;;;;;;;;;;361228;145;857302;-64
2021/08/22 03:43:11;;;;;;;6.66;2.94;;;;;;;;;;356911;149;857352;-61
2021/08/22 03:44:13;;;;;;;5.41;2.89;;;;;;;;;;355710;149;857281;-60
2021/08/22 03:45:14;;;;;;;6.12;2.71;;;;;;;;;;356995;147;857260;-60
2021/08/22 03:46:17;;;;;;;3.91;2.74;;;;;;;;;;356650;149;857540;-59
2021/08/22 03:47:18;;;;;;;5.89;2.41;;;;;;;;;;357825;149;857949;-59
2021/08/22 03:48:20;;;;;;;4.49;3.01;;;;;;;;;;356777;149;859185;-59
2021/08/22 03:49:21;;;;;;;3.99;2.39;;;;;;;;;;357748;147;858774;-60
2021/08/22 03:50:23;;;;;;;4.28;2.44;;;;;;;;;;357461;149;857067;-58
2021/08/22 03:51:25;;;;;;;7.04;2.72;;;;;;;;;;355568;149;864725;-59
2021/08/22 03:52:26;;;;;;;5.39;2.40;;;;;;;;;;356506;146;857131;-59
2021/08/22 03:53:28;;;;;;;4.47;2.74;;;;;;;;;;356232;147;865042;-59
2021/08/22 03:54:29;;;;;;;4.46;3.10;;;;;;;;;;357248;149;857765;-60
2021/08/22 03:55:31;;;;;;;3.84;3.06;;;;;;;;;;357401;147;858795;-59
2021/08/22 03:56:33;;;;;;;5.06;2.66;;;;;;;;;;356075;147;858523;-63
2021/08/22 03:57:34;;;;;;;6.16;2.91;;;;;;;;;;355535;149;857253;-60
2021/08/22 03:58:36;;;;;;;5.67;3.28;;;;;;;;;;355590;149;857288;-60
2021/08/22 03:59:38;;;;;;;4.05;2.95;;;;;;;;;;356145;149;857749;-61
2021/08/22 04:00:41;;;;;;;6.59;3.20;;;;;;;;;;356491;149;857234;-61
2021/08/22 04:01:43;;;;;;;3.36;3.06;;;;;;;;;;355841;149;858932;-60
2021/08/22 04:02:44;;;;;;;3.99;2.75;;;;;;;;;;357191;149;859762;-60
2021/08/22 04:03:46;;;;;;;6.04;3.74;;;;;;;;;;355960;147;864882;-60
2021/08/22 04:04:48;;;;;;;4.44;3.28;;;;;;;;;;355565;149;864839;-60
2021/08/22 04:05:49;;;;;;;5.37;2.94;;;;;;;;;;356494;146;866579;-61
2021/08/22 04:06:52;;;;;;;4.65;2.88;;;;;;;;;;356348;146;857303;-61
2021/08/22 04:07:55;;;;;;;5.76;2.79;;;;;;;;;;356106;149;857225;-61
2021/08/22 04:09:17;;;;;;;9.74;2.86;;;;;;;;;;355879;149;857260;-59
2021/08/22 04:10:21;;;;;;;3.31;2.66;;;;;;;;;;342366;154;858871;-61
2021/08/22 04:11:22;;;;;;;3.33;2.76;;;;;;;;;;349059;153;858608;-59
2021/08/22 04:12:24;;;;;;;4.64;2.57;;;;;;;;;;341812;155;864915;-60
2021/08/22 04:13:26;;;;;;;7.02;2.84;;;;;;;;;;342990;154;858652;-60
2021/08/22 04:14:27;;;;;;;4.80;2.89;;;;;;;;;;341439;155;860085;-60
2021/08/22 04:15:29;;;;;;;3.99;3.03;;;;;;;;;;340904;155;858871;-61
2021/08/22 04:16:32;;;;;;;3.81;2.77;;;;;;;;;;341570;155;858336;-60
2021/08/22 04:17:33;;;;;;;5.31;2.71;;;;;;;;;;339172;156;865025;-61
2021/08/22 04:18:35;;;;;;;3.63;2.71;;;;;;;;;;340863;155;857236;-59
2021/08/22 04:19:36;;;;;;;5.11;2.44;;;;;;;;;;340240;155;857324;-58
2021/08/22 04:20:39;;;;;;;6.52;2.50;;;;;;;;;;341242;155;857275;-59
2021/08/22 04:21:41;;;;;;;8.08;2.87;;;;;;;;;;339445;158;857129;-59
2021/08/22 04:22:43;;;;;;;4.96;2.41;;;;;;;;;;339614;155;857304;-61
2021/08/22 04:23:44;;;;;;;6.05;2.60;;;;;;;;;;343160;155;858218;-59
2021/08/22 04:24:46;;;;;;;4.09;2.50;;;;;;;;;;339593;156;859185;-59
2021/08/22 04:25:47;;;;;;;6.28;2.49;;;;;;;;;;338380;156;859357;-62
2021/08/22 04:26:50;;;;;;;6.09;2.58;;;;;;;;;;338258;156;857200;-59
2021/08/22 04:27:52;;;;;;;3.90;2.36;;;;;;;;;;338468;156;859335;-58
2021/08/22 04:28:54;;;;;;;4.82;2.40;;;;;;;;;;340541;155;858759;-59
2021/08/22 04:29:55;;;;;;;4.55;2.21;;;;;;;;;;336576;155;857294;-59
2021/08/22 04:30:58;;;;;;;3.83;2.36;;;;;;;;;;338600;155;857231;-59
2021/08/22 04:31:59;;;;;;;5.20;2.31;;;;;;;;;;338870;156;864848;-60
2021/08/22 04:33:01;;;;;;;3.49;2.12;;;;;;;;;;340126;156;857172;-61
2021/08/22 04:34:03;;;;;;;3.45;2.33;;;;;;;;;;339907;155;857187;-60
2021/08/22 04:35:05;;;;;;;4.00;2.59;;;;;;;;;;338438;155;857389;-58
2021/08/22 04:36:08;;;;;;;3.57;2.48;;;;;;;;;;340310;155;866511;-65
2021/08/22 04:37:09;;;;;;;4.45;2.46;;;;;;;;;;337465;155;857516;-63
2021/08/22 04:38:11;;;;;;;4.22;2.77;;;;;;;;;;339640;155;865896;-59
2021/08/22 04:39:13;;;;;;;5.66;2.72;;;;;;;;;;338090;158;858131;-59
2021/08/22 04:40:15;;;;;;;4.06;2.59;;;;;;;;;;340615;155;858891;-60
2021/08/22 04:41:17;;;;;;;4.63;3.13;;;;;;;;;;342096;155;856486;-59
2021/08/22 04:42:19;;;;;;;3.32;2.65;;;;;;;;;;339450;156;858806;-61
2021/08/22 04:43:20;;;;;;;6.01;3.01;;;;;;;;;;340270;156;856641;-61
2021/08/22 04:44:22;;;;;;;3.97;2.73;;;;;;;;;;340183;158;856287;-61
2021/08/22 04:45:24;;;;;;;6.26;3.39;;;;;;;;;;338795;155;856283;-60
2021/08/22 04:46:26;;;;;;;5.31;2.69;;;;;;;;;;338723;157;856152;-60
2021/08/22 04:47:28;;;;;;;6.02;3.25;;;;;;;;;;339970;155;856234;-60
2021/08/22 04:48:29;;;;;;;3.51;2.57;;;;;;;;;;340151;155;856177;-61
2021/08/22 04:49:31;;;;;;;3.96;2.54;;;;;;;;;;338569;156;863715;-61
2021/08/22 04:50:33;;;;;;;3.43;2.61;;;;;;;;;;339826;155;856288;-61
2021/08/22 04:51:35;;;;;;;4.67;2.61;;;;;;;;;;340250;158;863782;-60
2021/08/22 04:52:37;;;;;;;6.56;2.56;;;;;;;;;;341026;155;856337;-61
2021/08/22 04:53:38;;;;;;;3.32;2.69;;;;;;;;;;339856;157;864249;-61
2021/08/22 04:54:40;;;;;;;2.54;2.25;;;;;;;;;;337506;155;856128;-61
2021/08/22 04:57:27;;;;;;;4.01;2.34;;;;;;;17.35;61.29;100183.58;369480;142;884807;-60
2021/08/22 04:58:29;;;;;;;2.92;2.04;;;;;;;17.35;60.93;100188.81;362277;144;857206;-60
2021/08/22 04:59:30;;;;;;;5.34;2.59;;;;;;;17.40;61.04;100195.66;355575;148;864550;-60
2021/08/22 05:00:33;;;;;;;3.65;2.08;;;;;;;17.35;60.82;100193.17;362116;145;867030;-58
2021/08/22 05:01:36;;;;;;;3.28;2.29;;;;;;;17.36;60.94;100187.91;361623;146;857279;-60
2021/08/22 05:02:38;;;;;;;2.66;2.16;;;;;;;17.36;60.94;100187.91;366492;146;865147;-60
2021/08/22 05:03:41;;;;;;;4.64;3.23;;;;;;;17.36;60.94;100187.91;362399;144;865009;-60
2021/08/22 05:04:43;;;;;;;3.98;2.39;;;;;;;17.31;61.12;100191.56;365563;147;866439;-59
2021/08/22 05:05:45;;;;;;;6.70;2.27;;;;;;;17.33;60.68;100185.39;364186;145;857273;-61
2021/08/22 05:06:47;;;;;;;6.09;2.30;;;;;;;17.38;60.81;100191.33;362296;145;865650;-61
2021/08/22 05:07:49;;;;;;;3.26;2.37;;;;;;;17.46;60.47;100192.84;364827;144;858060;-61
2021/08/22 05:08:51;;;;;;;4.94;2.37;;;;;;;17.51;60.36;100186.56;362911;147;864749;-61
2021/08/22 05:09:53;;;;;;;3.71;2.19;;;;;;;17.41;59.97;100187.74;361922;146;864818;-61
2021/08/22 05:10:55;;;;;;;3.69;2.01;;;;;;;17.47;59.99;100184.08;364967;145;864704;-61
2021/08/22 05:11:59;;;;;;;7.68;2.24;;;;;;;17.47;59.99;100184.08;366194;146;859295;-61
2021/08/22 05:13:00;;;;;;;3.47;2.11;;;;;;;17.64;59.60;100191.39;367801;146;864695;-60
2021/08/22 05:14:02;;;;;;;5.42;2.24;;;;;;;17.73;59.49;100188.46;363345;144;864449;-59
2021/08/22 05:15:06;;;;;;;3.99;2.41;;;;;;;17.73;59.49;100188.46;363307;145;866482;-60
2021/08/22 05:16:09;;;;;;;2.77;2.12;;;;;;;17.73;59.49;100188.46;369628;145;864641;-60
2021/08/22 05:17:11;;;;;;;2.41;2.12;;;;;;;18.01;59.01;100186.66;363381;145;857287;-59
2021/08/22 05:18:13;;;;;;;5.39;2.06;;;;;;;17.91;58.46;100186.95;363000;145;866388;-58
2021/08/22 05:19:15;;;;;;;2.56;1.99;;;;;;;17.91;58.46;100186.95;360075;147;859079;-59
2021/08/22 05:20:19;;;;;;;3.16;2.03;;;;;;;;;;359357;146;864218;-59
2021/08/22 05:21:21;;;;;;;5.12;2.01;;;;;;;;;;362991;145;859646;-59
2021/08/22 05:22:23;;;;;;;2.76;1.94;;;;;;;;;;364850;146;858793;-59
2021/08/22 05:23:24;;;;;;;2.17;1.75;;;;;;;;;;365907;147;859532;-59
2021/08/22 05:24:26;;;;;;;3.49;1.99;;;;;;;;;;365289;146;857223;-59
2021/08/22 05:25:27;;;;;;;2.81;1.75;;;;;;;;;;364271;145;859617;-61
2021/08/22 05:26:30;;;;;;;2.81;1.85;;;;;;;;;;364403;147;859053;-60
2021/08/22 05:27:32;;;;;;;3.43;2.05;;;;;;;;;;363481;146;859038;-60
2021/08/22 05:28:34;;;;;;;3.74;2.07;;;;;;;;;;362529;144;857455;-60
2021/08/22 05:29:35;;;;;;;2.94;1.86;;;;;;;;;;363823;147;859121;-60
2021/08/22 05:30:38;;;;;;;5.62;1.87;;;;;;;;;;363842;146;857751;-59
2021/08/22 05:31:40;;;;;;;5.61;1.99;;;;;;;;;;363486;145;864902;-59
2021/08/22 05:32:41;;;;;;;3.02;1.92;;;;;;;;;;362442;144;857262;-59
2021/08/22 05:33:44;;;;;;;3.87;1.98;;;;;;;;;;360028;147;857329;-60
2021/08/22 05:34:45;;;;;;;3.47;1.93;;;;;;;;;;362330;146;857227;-60
2021/08/22 05:35:47;;;;;;;2.66;1.61;;;;;;;;;;362305;145;857117;-60
2021/08/22 05:36:49;;;;;;;2.47;1.80;;;;;;;;;;362996;147;857196;-60
2021/08/22 05:37:51;;;;;;;2.76;1.51;;;;;;;;;;362050;147;857250;-59
2021/08/22 05:38:53;;;;;;;4.27;1.67;;;;;;;;;;362341;145;857262;-60
2021/08/22 05:39:54;;;;;;;4.19;1.61;;;;;;;;;;365199;145;859018;-59
2021/08/22 05:40:58;;;;;;;3.11;1.71;;;;;;;;;;362254;144;857228;-59
2021/08/22 05:42:00;;;;;;;5.64;2.11;;;;;;;;;;355129;151;858144;-59
2021/08/22 05:43:01;;;;;;;4.73;1.79;;;;;;;;;;354462;149;857279;-60
2021/08/22 05:44:03;;;;;;;2.51;2.21;;;;;;;;;;362597;147;857350;-60
2021/08/22 05:45:05;;;;;;;2.47;1.84;;;;;;;;;;365807;146;857355;-60
2021/08/22 05:46:08;;;;;;;5.41;1.51;;;;;;;;;;363000;145;857620;-61
2021/08/22 05:47:10;;;;;;;2.67;1.73;;;;;;;;;;363832;145;857308;-60
2021/08/22 05:48:11;;;;;;;4.37;1.71;;;;;;;;;;362262;147;864548;-62
2021/08/22 05:49:13;;;;;;;1.89;1.31;;;;;;;;;;362292;146;857421;-62
2021/08/22 05:50:15;;;;;;;2.83;1.33;;;;;;;;;;364334;145;857382;-63
2021/08/22 05:51:19;;;;;;;4.39;2.12;;;;;;;;;;360750;147;857937;-60
2021/08/22 05:52:20;;;;;;;5.13;1.74;;;;;;;;;;364425;145;857440;-60
2021/08/22 05:53:22;;;;;;;2.17;1.55;;;;;;;;;;363718;144;857233;-60
2021/08/22 05:54:24;;;;;;;2.93;1.61;;;;;;;;;;362075;144;857973;-59
2021/08/22 05:55:25;;;;;;;2.66;1.52;;;;;;;;;;364090;144;859614;-59
2021/08/22 05:56:27;;;;;;;2.06;1.45;;;;;;;;;;362541;144;859383;-59
2021/08/22 05:57:28;;;;;;;2.64;1.64;;;;;;;;;;360603;144;865105;-60
2021/08/22 05:58:30;;;;;;;4.05;1.64;;;;;;;;;;360293;148;857205;-59
2021/08/22 05:59:33;;;;;;;2.34;1.49;;;;;;;;;;358596;145;857340;-60
2021/08/22 06:00:37;;;;;;;2.19;1.33;;;;;;;;;;358807;146;858952;-61
2021/08/22 06:01:39;;;;;;;3.76;1.81;;;;;;;;;;358422;146;857343;-60
2021/08/22 06:02:40;;;;;;;2.61;1.51;;;;;;;;;;358923;148;857372;-58